createdAt,value
2018-09-10T00:42:46.529Z,24.1
2018-09-10T00:43:36.342Z,24.1
2018-09-10T00:44:25.845Z,24.1
2018-09-10T00:45:15.868Z,24.1
2018-09-10T00:46:05.939Z,24.1
2018-09-10T00:46:56.044Z,24.1
2018-09-10T00:47:46.656Z,24.1
2018-09-10T00:48:36.436Z,24.1
2018-09-10T00:49:26.474Z,24.1
2018-09-10T00:50:16.826Z,24.1
2018-09-10T00:51:06.889Z,24.1
2018-09-10T00:51:56.386Z,24.1
2018-09-10T00:52:46.686Z,24.1
2018-09-10T00:53:36.503Z,24.1
2018-09-10T00:54:26.861Z,24.1
2018-09-10T00:55:16.865Z,24.1
2018-09-10T00:56:07.278Z,24.1
2018-09-10T00:56:57.036Z,24.1
2018-09-10T00:57:46.810Z,24.1
2018-09-10T00:58:37.450Z,24.1
2018-09-10T00:59:27.227Z,24.1
2018-09-10T01:00:17.295Z,24.1
2018-09-10T01:01:07.070Z,24.1
2018-09-10T01:01:57.130Z,24.1
2018-09-10T01:02:48.020Z,24.1
2018-09-10T01:03:37.552Z,24.1
2018-09-10T01:04:27.909Z,24.1
2018-09-10T01:05:17.962Z,24.1
2018-09-10T01:06:07.728Z,24.1
2018-09-10T01:06:58.070Z,24.1
2018-09-10T01:07:48.133Z,24.1
2018-09-10T01:08:38.201Z,24.1
2018-09-10T01:09:28.293Z,24.1
2018-09-10T01:10:18.347Z,24.1
2018-09-10T01:11:08.100Z,24.1
2018-09-10T01:11:58.453Z,24.1
2018-09-10T01:12:48.502Z,24.1
2018-09-10T01:13:38.847Z,24.1
2018-09-10T01:14:28.392Z,24.1
2018-09-10T01:15:18.448Z,24.1
2018-09-10T01:16:08.478Z,24.1
2018-09-10T01:16:58.269Z,24
2018-09-10T01:17:48.887Z,24.1
2018-09-10T01:18:38.919Z,24.1
2018-09-10T01:19:29.019Z,24.1
2018-09-10T01:20:19.090Z,24
2018-09-10T01:21:08.609Z,24.1
2018-09-10T01:21:59.199Z,24.1
2018-09-10T01:22:49.271Z,24.1
2018-09-10T01:23:39.606Z,24.1
2018-09-10T01:24:28.949Z,24.1
2018-09-10T01:25:19.462Z,24.1
2018-09-10T01:26:09.551Z,24.1
2018-09-10T01:26:59.308Z,24
2018-09-10T01:27:49.653Z,24
2018-09-10T01:28:38.885Z,24.1
2018-09-10T01:29:29.228Z,24
2018-09-10T01:30:18.978Z,24.1
2018-09-10T01:31:09.346Z,24.1
2018-09-10T01:31:59.708Z,24.1
2018-09-10T01:32:50.056Z,24
2018-09-10T01:33:39.551Z,24
2018-09-10T01:34:29.865Z,24
2018-09-10T01:35:20.221Z,24
2018-09-10T01:36:10.005Z,24
2018-09-10T01:37:00.363Z,24
2018-09-10T01:37:50.427Z,24
2018-09-10T01:38:40.483Z,24
2018-09-10T01:39:30.528Z,24
2018-09-10T01:40:20.596Z,24
2018-09-10T01:41:10.104Z,24.1
2018-09-10T01:42:00.711Z,24
2018-09-10T01:42:50.854Z,24
2018-09-10T01:43:40.583Z,24
2018-09-10T01:44:30.619Z,24
2018-09-10T01:45:20.678Z,24
2018-09-10T01:46:11.035Z,24
2018-09-10T01:47:01.127Z,24
2018-09-10T01:47:50.903Z,24
2018-09-10T01:48:41.497Z,24
2018-09-10T01:49:31.249Z,24
2018-09-10T01:50:21.879Z,24
2018-09-10T01:51:11.120Z,24
2018-09-10T01:52:00.908Z,24
2018-09-10T01:52:51.559Z,24
2018-09-10T01:53:41.591Z,24
2018-09-10T01:54:31.657Z,24
2018-09-10T01:55:21.439Z,24
2018-09-10T01:56:11.226Z,24
2018-09-10T01:57:01.301Z,24
2018-09-10T01:57:51.651Z,24
2018-09-10T01:58:41.969Z,24
2018-09-10T01:59:31.764Z,24
2018-09-10T02:00:22.101Z,24
2018-09-10T02:01:12.172Z,24
2018-09-10T02:02:02.003Z,24
2018-09-10T02:02:52.291Z,24
2018-09-10T02:03:42.366Z,24
2018-09-10T02:04:32.433Z,24
2018-09-10T02:05:22.484Z,23.9
2018-09-10T02:06:12.241Z,24
2018-09-10T02:07:02.601Z,24
2018-09-10T02:07:52.637Z,24
2018-09-10T02:08:42.436Z,24
2018-09-10T02:09:32.513Z,24
2018-09-10T02:10:22.856Z,23.9
2018-09-10T02:11:12.629Z,23.9
2018-09-10T02:12:02.689Z,24
2018-09-10T02:12:52.708Z,24
2018-09-10T02:13:43.094Z,23.9
2018-09-10T02:14:32.866Z,23.9
2018-09-10T02:15:23.044Z,23.9
2018-09-10T02:16:13.544Z,23.9
2018-09-10T02:17:03.676Z,23.9
2018-09-10T02:17:53.435Z,23.9
2018-09-10T02:18:43.228Z,23.9
2018-09-10T02:19:33.259Z,23.9
2018-09-10T02:20:24.347Z,23.9
2018-09-10T02:21:13.110Z,23.9
2018-09-10T02:22:03.461Z,23.9
2018-09-10T02:22:53.525Z,23.9
2018-09-10T02:23:44.406Z,23.9
2018-09-10T02:24:33.716Z,23.9
2018-09-10T02:25:23.733Z,23.9
2018-09-10T02:26:14.055Z,23.9
2018-09-10T02:27:03.817Z,23.9
2018-09-10T02:27:54.720Z,23.9
2018-09-10T02:28:43.947Z,23.9
2018-09-10T02:29:34.556Z,23.9
2018-09-10T02:30:24.111Z,23.9
2018-09-10T02:31:14.420Z,23.9
2018-09-10T02:32:04.238Z,23.9
2018-09-10T02:32:54.569Z,23.9
2018-09-10T02:33:44.604Z,23.9
2018-09-10T02:34:34.697Z,23.9
2018-09-10T02:35:24.994Z,23.9
2018-09-10T02:36:14.542Z,23.9
2018-09-10T02:37:04.867Z,23.9
2018-09-10T02:37:55.123Z,23.9
2018-09-10T02:38:45.787Z,23.9
2018-09-10T02:39:34.935Z,23.9
2018-09-10T02:40:25.090Z,23.9
2018-09-10T02:41:14.626Z,23.9
2018-09-10T02:42:05.521Z,23.9
2018-09-10T02:42:54.757Z,23.9
2018-09-10T02:43:45.077Z,23.9
2018-09-10T02:44:35.431Z,23.9
2018-09-10T02:45:25.208Z,23.9
2018-09-10T02:46:14.972Z,23.9
2018-09-10T02:47:05.633Z,23.9
2018-09-10T02:47:55.729Z,23.9
2018-09-10T02:48:45.179Z,23.9
2018-09-10T02:49:36.331Z,23.9
2018-09-10T02:50:25.098Z,23.9
2018-09-10T02:51:15.931Z,23.9
2018-09-10T02:52:05.446Z,23.9
2018-09-10T02:52:56.072Z,23.9
2018-09-10T02:53:46.081Z,23.9
2018-09-10T02:54:36.414Z,23.9
2018-09-10T02:55:26.235Z,23.9
2018-09-10T02:56:15.903Z,23.9
2018-09-10T02:57:06.073Z,23.9
2018-09-10T02:57:56.158Z,23.9
2018-09-10T02:58:46.503Z,23.9
2018-09-10T02:59:36.965Z,23.9
2018-09-10T03:00:26.619Z,23.9
2018-09-10T03:01:16.393Z,23.9
2018-09-10T03:02:06.758Z,23.9
2018-09-10T03:02:56.526Z,23.9
2018-09-10T03:03:46.611Z,23.9
2018-09-10T03:04:36.684Z,23.9
2018-09-10T03:05:26.705Z,23.8
2018-09-10T03:06:16.516Z,23.9
2018-09-10T03:07:07.181Z,23.9
2018-09-10T03:07:57.172Z,23.9
2018-09-10T03:08:47.318Z,23.9
2018-09-10T03:09:37.031Z,23.9
2018-09-10T03:10:27.084Z,23.9
2018-09-10T03:11:17.155Z,23.9
2018-09-10T03:12:07.251Z,23.9
2018-09-10T03:12:57.566Z,23.8
2018-09-10T03:13:47.345Z,23.9
2018-09-10T03:14:38.216Z,23.9
2018-09-10T03:15:28.885Z,23.8
2018-09-10T03:16:18.647Z,23.9
2018-09-10T03:17:07.679Z,23.9
2018-09-10T03:17:58.033Z,23.8
2018-09-10T03:18:47.999Z,23.8
2018-09-10T03:19:37.239Z,23.8
2018-09-10T03:20:28.375Z,23.8
2018-09-10T03:21:17.912Z,23.8
2018-09-10T03:22:08.230Z,23.8
2018-09-10T03:22:58.073Z,23.8
2018-09-10T03:23:48.082Z,23.8
2018-09-10T03:24:38.170Z,23.8
2018-09-10T03:25:29.455Z,23.8
2018-09-10T03:26:18.582Z,23.8
2018-09-10T03:27:08.336Z,23.8
2018-09-10T03:27:58.407Z,23.8
2018-09-10T03:28:47.912Z,23.8
2018-09-10T03:29:38.549Z,23.8
2018-09-10T03:30:29.204Z,23.8
2018-09-10T03:31:18.964Z,23.8
2018-09-10T03:32:08.752Z,23.8
2018-09-10T03:32:59.054Z,23.8
2018-09-10T03:33:49.346Z,23.8
2018-09-10T03:34:39.181Z,23.8
2018-09-10T03:35:29.258Z,23.8
2018-09-10T03:36:18.734Z,23.8
2018-09-10T03:37:09.385Z,23.8
2018-09-10T03:37:59.159Z,23.8
2018-09-10T03:38:49.211Z,23.8
2018-09-10T03:39:39.592Z,23.8
2018-09-10T03:40:29.058Z,23.8
2018-09-10T03:41:19.723Z,23.8
2018-09-10T03:42:09.481Z,23.8
2018-09-10T03:42:59.541Z,23.8
2018-09-10T03:43:50.203Z,23.8
2018-09-10T03:44:39.819Z,23.8
2018-09-10T03:45:29.997Z,23.8
2018-09-10T03:46:20.061Z,23.8
2018-09-10T03:47:10.002Z,23.8
2018-09-10T03:48:00.198Z,23.8
2018-09-10T03:48:49.955Z,23.8
2018-09-10T03:49:40.358Z,23.8
2018-09-10T03:50:30.402Z,23.8
2018-09-10T03:51:20.436Z,23.8
2018-09-10T03:52:10.227Z,23.8
2018-09-10T03:53:00.603Z,23.8
2018-09-10T03:53:50.065Z,23.8
2018-09-10T03:54:40.686Z,23.8
2018-09-10T03:55:30.455Z,23.8
2018-09-10T03:56:21.102Z,23.8
2018-09-10T03:57:10.562Z,23.8
2018-09-10T03:58:00.949Z,23.8
2018-09-10T03:58:50.997Z,23.8
2018-09-10T03:59:40.787Z,23.8
2018-09-10T04:00:30.865Z,23.8
2018-09-10T04:01:20.868Z,23.8
2018-09-10T04:02:11.402Z,23.8
2018-09-10T04:03:01.474Z,23.8
2018-09-10T04:03:51.235Z,23.8
2018-09-10T04:04:40.961Z,23.8
2018-09-10T04:05:31.253Z,23.8
2018-09-10T04:06:21.883Z,23.8
2018-09-10T04:07:11.846Z,23.9
2018-09-10T04:08:01.683Z,23.9
2018-09-10T04:08:51.451Z,23.9
2018-09-10T04:09:41.563Z,23.9
2018-09-10T04:10:31.867Z,24
2018-09-10T04:11:21.689Z,24
2018-09-10T04:12:12.069Z,24
2018-09-10T04:13:01.766Z,24.1
2018-09-10T04:13:52.139Z,24.1
2018-09-10T04:14:41.333Z,24.1
2018-09-10T04:15:32.251Z,24
2018-09-10T04:16:22.298Z,24
2018-09-10T04:17:12.796Z,24
2018-09-10T04:18:02.437Z,24
2018-09-10T04:18:52.510Z,23.9
2018-09-10T04:19:41.993Z,23.9
2018-09-10T04:20:32.088Z,23.9
2018-09-10T04:21:22.413Z,23.9
2018-09-10T04:22:12.455Z,23.9
2018-09-10T04:23:02.942Z,23.9
2018-09-10T04:23:52.310Z,24
2018-09-10T04:24:42.940Z,24.1
2018-09-10T04:25:33.006Z,24.1
2018-09-10T04:26:22.913Z,24.1
2018-09-10T04:27:12.953Z,24.1
2018-09-10T04:28:02.915Z,24.1
2018-09-10T04:28:52.965Z,24.1
2018-09-10T04:29:43.072Z,24.1
2018-09-10T04:30:33.384Z,24.1
2018-09-10T04:31:22.613Z,24.1
2018-09-10T04:32:13.511Z,24.1
2018-09-10T04:33:03.823Z,24.1
2018-09-10T04:33:53.682Z,24.1
2018-09-10T04:34:43.420Z,24
2018-09-10T04:35:33.747Z,24
2018-09-10T04:36:23.227Z,24
2018-09-10T04:37:13.848Z,24
2018-09-10T04:38:04.203Z,24
2018-09-10T04:38:53.728Z,24
2018-09-10T04:39:43.809Z,24
2018-09-10T04:40:34.119Z,24
2018-09-10T04:41:23.924Z,24
2018-09-10T04:42:14.371Z,24
2018-09-10T04:43:04.617Z,24
2018-09-10T04:43:53.773Z,23.9
2018-09-10T04:44:44.158Z,23.9
2018-09-10T04:45:34.500Z,23.9
2018-09-10T04:46:23.717Z,23.9
2018-09-10T04:47:13.776Z,23.9
2018-09-10T04:48:04.407Z,23.9
2018-09-10T04:48:53.896Z,23.9
2018-09-10T04:49:45.690Z,23.9
2018-09-10T04:50:34.308Z,23.9
2018-09-10T04:51:24.947Z,23.9
2018-09-10T04:52:14.716Z,23.9
2018-09-10T04:53:05.063Z,23.9
2018-09-10T04:53:54.850Z,23.9
2018-09-10T05:11:35.906Z,23.9
2018-09-10T05:12:25.168Z,23.9
2018-09-10T05:13:15.211Z,23.8
2018-09-10T05:14:05.284Z,23.8
2018-09-10T05:14:55.375Z,23.8
2018-09-10T05:15:45.139Z,23.8
2018-09-10T05:16:35.736Z,23.8
2018-09-10T05:17:25.529Z,23.8
2018-09-10T05:18:15.334Z,23.8
2018-09-10T05:19:06.307Z,23.8
2018-09-10T05:19:56.221Z,23.8
2018-09-10T05:20:45.853Z,23.8
2018-09-10T05:21:36.361Z,23.8
2018-09-10T05:22:25.066Z,23.8
2018-09-10T05:23:15.993Z,23.8
2018-09-10T05:24:05.447Z,23.8
2018-09-10T05:24:56.178Z,23.8
2018-09-10T05:25:45.606Z,23.8
2018-09-10T05:26:36.324Z,23.8
2018-09-10T05:27:26.012Z,23.8
2018-09-10T05:28:16.895Z,23.8
2018-09-10T05:29:05.913Z,23.8
2018-09-10T05:29:56.173Z,23.8
2018-09-10T05:30:46.302Z,23.8
2018-09-10T05:31:36.600Z,23.8
2018-09-10T05:32:26.674Z,23.8
2018-09-10T05:33:16.439Z,23.8
2018-09-10T05:34:06.496Z,23.8
2018-09-10T05:34:56.575Z,23.8
2018-09-10T05:35:46.952Z,23.8
2018-09-10T05:36:36.674Z,23.8
2018-09-10T05:37:27.277Z,23.8
2018-09-10T05:38:17.092Z,23.8
2018-09-10T05:39:07.328Z,23.8
2018-09-10T05:39:56.956Z,23.8
2018-09-10T05:40:47.218Z,23.8
2018-09-10T05:41:38.123Z,23.8
2018-09-10T05:42:27.747Z,23.8
2018-09-10T05:43:17.465Z,23.8
2018-09-10T05:44:07.520Z,23.8
2018-09-10T05:44:57.601Z,23.8
2018-09-10T05:45:47.648Z,23.8
2018-09-10T05:46:37.253Z,23.8
2018-09-10T05:47:28.712Z,23.8
2018-09-10T05:48:17.915Z,23.8
2018-09-10T05:49:07.621Z,23.8
2018-09-10T05:49:57.694Z,23.8
2018-09-10T05:50:48.036Z,23.8
2018-09-10T05:51:37.828Z,23.8
2018-09-10T05:52:28.081Z,23.8
2018-09-10T05:53:19.260Z,23.8
2018-09-10T05:54:08.295Z,23.8
2018-09-10T05:54:58.400Z,23.8
2018-09-10T05:55:48.408Z,23.8
2018-09-10T05:56:38.455Z,23.8
2018-09-10T05:57:28.777Z,23.8
2018-09-10T05:58:18.313Z,23.7
2018-09-10T05:59:08.661Z,23.8
2018-09-10T05:59:58.728Z,23.8
2018-09-10T06:00:48.488Z,23.7
2018-09-10T06:01:38.837Z,23.8
2018-09-10T06:02:29.143Z,23.8
2018-09-10T06:03:18.367Z,23.7
2018-09-10T06:04:08.825Z,23.8
2018-09-10T06:04:58.827Z,23.7
2018-09-10T06:05:48.659Z,23.7
2018-09-10T06:06:39.224Z,23.7
2018-09-10T06:07:29.281Z,23.7
2018-09-10T06:08:19.107Z,23.7
2018-09-10T06:09:09.427Z,23.7
2018-09-10T06:09:59.490Z,23.7
2018-09-10T06:10:49.620Z,23.8
2018-09-10T06:11:39.712Z,23.7
2018-09-10T06:12:29.646Z,23.7
2018-09-10T06:13:19.739Z,23.7
2018-09-10T06:14:08.914Z,23.7
2018-09-10T06:14:59.546Z,23.7
2018-09-10T06:15:49.922Z,23.7
2018-09-10T06:16:40.093Z,23.7
2018-09-10T06:17:30.059Z,23.7
2018-09-10T06:18:19.821Z,23.7
2018-09-10T06:19:10.231Z,23.7
2018-09-10T06:19:59.401Z,23.7
2018-09-10T06:20:49.706Z,23.7
2018-09-10T06:21:40.343Z,23.7
2018-09-10T06:22:30.121Z,23.7
2018-09-10T06:23:19.886Z,23.6
2018-09-10T06:24:10.239Z,23.7
2018-09-10T06:25:00.588Z,23.7
2018-09-10T06:25:50.668Z,23.7
2018-09-10T06:26:40.711Z,23.7
2018-09-10T06:27:30.790Z,23.7
2018-09-10T06:28:21.161Z,23.7
2018-09-10T06:29:10.892Z,23.7
2018-09-10T06:30:00.967Z,23.7
2018-09-10T06:30:50.743Z,23.7
2018-09-10T06:31:40.264Z,23.7
2018-09-10T06:32:31.180Z,23.7
2018-09-10T06:33:21.191Z,23.1
2018-09-10T06:34:11.990Z,32.9
2018-09-10T06:35:01.355Z,44.5
2018-09-10T06:35:51.193Z,46
2018-09-10T06:36:41.489Z,44.7
2018-09-10T06:37:31.559Z,41.8
2018-09-10T06:38:21.332Z,40.7
2018-09-10T06:39:11.768Z,40.1
2018-09-10T06:40:01.719Z,39.6
2018-09-10T06:40:51.209Z,39.1
2018-09-10T06:41:41.871Z,38.8
2018-09-10T06:42:31.619Z,38.4
2018-09-10T06:43:21.678Z,38.1
2018-09-10T06:44:12.029Z,37.8
2018-09-10T06:45:01.807Z,37.4
2018-09-10T06:45:51.890Z,37.1
2018-09-10T06:46:41.961Z,36.8
2018-09-10T06:47:32.006Z,36.5
2018-09-10T06:48:22.078Z,36.3
2018-09-10T06:49:12.423Z,35.7
2018-09-10T06:50:02.208Z,40.6
2018-09-10T06:50:52.333Z,47.6
2018-09-10T06:51:42.625Z,48.9
2018-09-10T06:52:32.716Z,48.9
2018-09-10T06:53:23.130Z,46.8
2018-09-10T06:54:12.790Z,43.4
2018-09-10T06:55:02.570Z,40.9
2018-09-10T06:55:52.999Z,40.8
2018-09-10T06:56:42.992Z,42.3
2018-09-10T06:57:33.073Z,43.8
2018-09-10T06:58:23.251Z,45.1
2018-09-10T06:59:13.370Z,45.7
2018-09-10T07:00:03.316Z,45.6
2018-09-10T07:00:53.398Z,45
2018-09-10T07:01:43.370Z,44.6
2018-09-10T07:02:33.433Z,44.6
2018-09-10T07:03:23.490Z,44.6
2018-09-10T07:04:13.865Z,45
2018-09-10T07:05:02.483Z,45.3
2018-09-10T07:05:53.408Z,45.2
2018-09-10T07:06:43.752Z,44.7
2018-09-10T07:07:33.872Z,43.9
2018-09-10T07:08:23.376Z,43.3
2018-09-10T07:09:13.667Z,42.9
2018-09-10T07:10:04.321Z,42.7
2018-09-10T07:10:54.077Z,42.6
2018-09-10T07:11:44.189Z,42.6
2018-09-10T07:12:34.589Z,42.4
2018-09-10T07:13:24.304Z,42.1
2018-09-10T07:14:14.317Z,41.8
2018-09-10T07:15:04.691Z,41.4
2018-09-10T07:15:54.457Z,41
2018-09-10T07:16:44.472Z,40.6
2018-09-10T07:17:34.582Z,40.1
2018-09-10T07:18:24.717Z,39.8
2018-09-10T07:19:14.457Z,39.4
2018-09-10T07:20:05.044Z,39.1
2018-09-10T07:20:54.530Z,38.8
2018-09-10T07:21:45.089Z,38.4
2018-09-10T07:22:34.732Z,38.1
2018-09-10T07:23:24.759Z,37.8
2018-09-10T07:24:15.076Z,37.6
2018-09-10T07:25:05.379Z,37.5
2018-09-10T07:25:54.930Z,38.5
2018-09-10T07:26:45.576Z,44.3
2018-09-10T07:27:35.498Z,48.1
2018-09-10T07:28:24.921Z,48.3
2018-09-10T07:29:15.512Z,48
2018-09-10T07:30:05.531Z,46.1
2018-09-10T07:30:55.576Z,43.9
2018-09-10T07:31:45.696Z,42.9
2018-09-10T07:32:35.437Z,43.9
2018-09-10T07:33:25.518Z,45.9
2018-09-10T07:34:15.540Z,47.6
2018-09-10T07:35:05.942Z,48.7
2018-09-10T07:35:55.680Z,49.1
2018-09-10T07:36:46.036Z,48.8
2018-09-10T07:37:36.085Z,48.4
2018-09-10T07:38:26.150Z,48.3
2018-09-10T07:39:16.235Z,48.6
2018-09-10T07:40:06.287Z,48.8
2018-09-10T07:40:56.354Z,48.9
2018-09-10T07:41:46.133Z,48.9
2018-09-10T07:42:36.458Z,49.3
2018-09-10T07:43:27.096Z,49.8
2018-09-10T07:44:17.025Z,49.8
2018-09-10T07:45:06.647Z,49.9
2018-09-10T07:45:56.785Z,50.1
2018-09-10T07:46:46.495Z,50.5
2018-09-10T07:47:37.112Z,50.9
2018-09-10T07:48:26.917Z,51.3
2018-09-10T07:49:16.976Z,51.6
2018-09-10T07:50:07.068Z,51.9
2018-09-10T07:50:57.125Z,52.1
2018-09-10T07:51:46.617Z,52.3
2018-09-10T07:52:37.305Z,52.6
2018-09-10T07:53:27.319Z,52.9
2018-09-10T07:54:17.357Z,53.2
2018-09-10T07:55:07.439Z,53.4
2018-09-10T07:55:57.489Z,53.6
2018-09-10T07:56:47.611Z,53.8
2018-09-10T07:57:37.614Z,53.9
2018-09-10T07:58:27.681Z,54.1
2018-09-10T07:59:17.734Z,54.3
2018-09-10T08:00:07.876Z,54.6
2018-09-10T08:00:57.105Z,54.8
2018-09-10T08:01:47.995Z,55.1
2018-09-10T08:02:37.746Z,55.3
2018-09-10T08:03:27.803Z,55.4
2018-09-10T08:04:18.128Z,55.6
2018-09-10T08:05:07.638Z,55.8
2018-09-10T08:05:58.272Z,56
2018-09-10T08:06:48.362Z,56.1
2018-09-10T08:07:38.375Z,56.3
2018-09-10T08:08:28.433Z,56.4
2018-09-10T08:09:18.964Z,56.5
2018-09-10T08:10:08.278Z,56.7
2018-09-10T08:10:58.878Z,56.9
2018-09-10T08:11:48.696Z,57.1
2018-09-10T08:12:38.532Z,57.3
2018-09-10T08:13:28.896Z,57.4
2018-09-10T08:14:18.889Z,57.6
2018-09-10T08:15:58.462Z,57.9
2018-09-10T08:16:49.327Z,58
2018-09-10T08:17:39.149Z,58.2
2018-09-10T08:18:29.258Z,58.3
2018-09-10T08:19:19.275Z,58.5
2018-09-10T08:20:09.348Z,58.6
2018-09-10T08:20:59.360Z,58.7
2018-09-10T08:21:49.515Z,58.9
2018-09-10T08:22:39.232Z,59.1
2018-09-10T08:23:29.577Z,59.3
2018-09-10T08:24:20.751Z,59.4
2018-09-10T08:25:10.318Z,59.6
2018-09-10T08:25:59.222Z,59.8
2018-09-10T08:26:49.851Z,59.8
2018-09-10T08:27:39.625Z,59.9
2018-09-10T08:28:29.970Z,60.1
2018-09-10T08:29:19.479Z,60.3
2018-09-10T08:30:09.533Z,60.4
2018-09-10T08:31:00.165Z,60.5
2018-09-10T08:31:50.185Z,60.5
2018-09-10T08:32:39.989Z,60.4
2018-09-10T08:33:30.394Z,59.8
2018-09-10T08:34:19.914Z,58.6
2018-09-10T08:35:10.489Z,57.6
2018-09-10T08:36:00.704Z,57.2
2018-09-10T08:36:51.529Z,57.3
2018-09-10T08:37:40.933Z,57.1
2018-09-10T08:38:30.734Z,57.4
2018-09-10T08:39:21.069Z,57.3
2018-09-10T08:40:10.873Z,56.4
2018-09-10T08:41:00.948Z,55.4
2018-09-10T08:41:50.981Z,54.7
2018-09-10T08:42:41.321Z,54
2018-09-10T08:43:30.261Z,53.6
2018-09-10T08:44:21.188Z,54.3
2018-09-10T08:45:11.255Z,55.5
2018-09-10T08:46:01.326Z,55.9
2018-09-10T08:46:51.688Z,55.8
2018-09-10T08:47:41.156Z,55.4
2018-09-10T08:48:31.225Z,55.2
2018-09-10T08:49:21.568Z,55.3
2018-09-10T08:50:10.766Z,56
2018-09-10T08:51:01.689Z,57.1
2018-09-10T08:51:50.945Z,57.4
2018-09-10T08:52:41.826Z,56.5
2018-09-10T08:53:31.355Z,55.1
2018-09-10T08:54:23.985Z,53.8
2018-09-10T08:55:13.372Z,52.9
2018-09-10T08:56:03.591Z,52.5
2018-09-10T08:56:53.043Z,52.5
2018-09-10T08:57:42.762Z,52.5
2018-09-10T08:58:32.724Z,52.7
2018-09-10T08:59:22.315Z,52.5
2018-09-10T09:00:12.836Z,51.8
2018-09-10T09:01:02.454Z,51
2018-09-10T09:01:52.952Z,50.3
2018-09-10T09:02:42.591Z,49.8
2018-09-10T09:03:32.639Z,49.9
2018-09-10T09:04:22.421Z,51.4
2018-09-10T09:05:12.761Z,53.3
2018-09-10T09:06:03.112Z,54.9
2018-09-10T09:06:52.923Z,56
2018-09-10T09:07:43.260Z,55.8
2018-09-10T09:08:33.076Z,54.1
2018-09-10T09:09:23.116Z,52.3
2018-09-10T09:26:08.149Z,52.4
2018-09-10T09:26:58.135Z,52.7
2018-09-10T09:27:48.208Z,53
2018-09-10T09:28:38.515Z,53.9
2018-09-10T09:29:28.334Z,55.4
2018-09-10T09:30:19.333Z,56.4
2018-09-10T09:31:08.697Z,56.4
2018-09-10T09:31:58.514Z,55.3
2018-09-10T09:32:48.062Z,53.9
2018-09-10T09:33:38.111Z,52.7
2018-09-10T09:34:27.964Z,52
2018-09-10T09:35:18.763Z,51.9
2018-09-10T09:36:08.799Z,52.1
2018-09-10T09:36:58.324Z,52.6
2018-09-10T09:37:48.949Z,53.6
2018-09-10T09:38:38.881Z,53.5
2018-09-10T09:39:28.535Z,52.6
2018-09-10T09:40:19.140Z,51.6
2018-09-10T09:41:08.916Z,51
2018-09-10T09:41:59.016Z,51.1
2018-09-10T09:42:49.053Z,51.2
2018-09-10T09:43:38.871Z,51.1
2018-09-10T09:44:29.472Z,51
2018-09-10T09:45:18.979Z,50.8
2018-09-10T09:46:09.589Z,51.1
2018-09-10T09:46:59.428Z,51.6
2018-09-10T09:47:49.477Z,51.6
2018-09-10T09:48:39.483Z,52.3
2018-09-10T09:49:29.860Z,52.9
2018-09-10T09:50:19.645Z,52.6
2018-09-10T09:51:10.511Z,51.6
2018-09-10T09:52:00.038Z,50.8
2018-09-10T09:52:49.817Z,50.3
2018-09-10T09:53:39.893Z,51.2
2018-09-10T09:54:29.930Z,53.3
2018-09-10T09:55:19.805Z,55.4
2018-09-10T09:56:10.397Z,56.9
2018-09-10T09:57:00.157Z,57.3
2018-09-10T09:57:49.907Z,56.8
2018-09-10T09:58:40.558Z,56.8
2018-09-10T09:59:30.575Z,55.9
2018-09-10T10:00:20.670Z,55.4
2018-09-10T10:01:10.443Z,56.3
2018-09-10T10:02:00.233Z,56.4
2018-09-10T10:02:50.580Z,55.8
2018-09-10T10:03:40.937Z,55.1
2018-09-10T10:04:31.864Z,54.3
2018-09-10T10:05:20.507Z,53.6
2018-09-10T10:06:10.833Z,53.3
2018-09-10T10:07:01.249Z,53.6
2018-09-10T10:07:50.676Z,54.9
2018-09-10T10:08:41.082Z,56.3
2018-09-10T10:09:31.391Z,57.1
2018-09-10T10:10:22.318Z,56.6
2018-09-10T10:11:11.983Z,55.1
2018-09-10T10:12:01.929Z,53.4
2018-09-10T10:12:51.614Z,52.3
2018-09-10T10:13:41.699Z,51.7
2018-09-10T10:14:31.779Z,51.7
2018-09-10T10:15:21.049Z,52
2018-09-10T10:16:11.874Z,52.8
2018-09-10T10:17:01.982Z,54.3
2018-09-10T10:17:52.252Z,55.5
2018-09-10T10:18:41.809Z,56.3
2018-09-10T10:19:31.653Z,56.8
2018-09-10T10:20:22.199Z,57.2
2018-09-10T10:21:11.706Z,56.8
2018-09-10T10:22:02.620Z,56.6
2018-09-10T10:22:52.126Z,57.1
2018-09-10T10:23:41.983Z,57.2
2018-09-10T10:24:32.238Z,56.6
2018-09-10T10:25:22.573Z,55.7
2018-09-10T10:26:12.091Z,55.2
2018-09-10T10:27:02.723Z,56
2018-09-10T10:27:52.770Z,57.4
2018-09-10T10:28:42.575Z,58.8
2018-09-10T10:29:32.898Z,59.8
2018-09-10T10:30:22.678Z,60.5
2018-09-10T10:31:13.020Z,60.8
2018-09-10T10:32:03.108Z,60.9
2018-09-10T10:32:53.200Z,60.7
2018-09-10T10:33:43.218Z,59.5
2018-09-10T10:34:32.845Z,58.2
2018-09-10T10:35:23.345Z,57.3
2018-09-10T10:36:13.418Z,56.6
2018-09-10T10:37:03.183Z,56.3
2018-09-10T10:37:53.550Z,56.8
2018-09-10T10:39:33.393Z,58.7
2018-09-10T10:40:23.147Z,59.6
2018-09-10T10:41:14.042Z,60.3
2018-09-10T10:42:03.864Z,60.8
2018-09-10T10:42:53.914Z,61.1
2018-09-10T10:43:43.694Z,61.4
2018-09-10T10:44:33.760Z,61.6
2018-09-10T10:45:23.812Z,61.1
2018-09-10T10:46:13.896Z,59.8
2018-09-10T10:47:04.236Z,58.5
2018-09-10T10:47:54.565Z,58.2
2018-09-10T10:48:44.097Z,59.1
2018-09-10T10:49:34.437Z,60.5
2018-09-10T10:50:24.542Z,61.8
2018-09-10T10:51:14.554Z,62.6
2018-09-10T10:52:04.621Z,62.9
2018-09-10T10:52:54.754Z,62.6
2018-09-10T10:53:45.447Z,62.3
2018-09-10T10:54:34.809Z,62.3
2018-09-10T10:55:24.879Z,62.8
2018-09-10T10:56:14.949Z,63.6
2018-09-10T10:57:05.039Z,64.4
2018-09-10T10:57:55.101Z,64.9
2018-09-10T10:58:45.376Z,65.2
2018-09-10T10:59:35.191Z,65.3
2018-09-10T11:00:25.311Z,65.3
2018-09-10T11:01:15.033Z,65.4
2018-09-10T11:02:05.131Z,65.6
2018-09-10T11:02:55.459Z,65.8
2018-09-10T11:03:44.941Z,66.1
2018-09-10T11:04:35.311Z,66.3
2018-09-10T11:05:25.674Z,66.4
2018-09-10T11:06:15.480Z,66.2
2018-09-10T11:07:05.743Z,66.1
2018-09-10T11:07:55.836Z,66.2
2018-09-10T11:08:45.371Z,66.3
2018-09-10T11:09:35.955Z,66.5
2018-09-10T11:10:25.731Z,66.7
2018-09-10T11:11:16.088Z,66.9
2018-09-10T11:12:06.157Z,67.1
2018-09-10T11:12:55.943Z,67.3
2018-09-10T11:13:45.713Z,67.4
2018-09-10T11:14:36.075Z,67.4
2018-09-10T11:15:26.411Z,67.6
2018-09-10T11:16:16.455Z,67.6
2018-09-10T11:17:06.605Z,67.6
2018-09-10T11:17:56.605Z,67.6
2018-09-10T11:18:46.612Z,67.7
2018-09-10T11:19:36.491Z,67.8
2018-09-10T11:20:26.780Z,67.8
2018-09-10T11:21:16.575Z,67.9
2018-09-10T11:22:06.935Z,68
2018-09-10T11:22:56.709Z,68.1
2018-09-10T11:23:46.763Z,68
2018-09-10T11:24:36.842Z,67.7
2018-09-10T11:25:26.599Z,67.8
2018-09-10T11:26:16.942Z,67.9
2018-09-10T11:27:06.997Z,68
2018-09-10T11:27:57.380Z,67.2
2018-09-10T11:28:46.942Z,66
2018-09-10T11:29:37.003Z,65.3
2018-09-10T11:30:27.562Z,64.6
2018-09-10T11:31:17.327Z,64.4
2018-09-10T11:32:07.751Z,65.2
2018-09-10T11:32:57.749Z,66.1
2018-09-10T11:33:47.816Z,66.7
2018-09-10T11:34:38.392Z,66.9
2018-09-10T11:35:28.007Z,66.9
2018-09-10T11:36:17.719Z,66.8
2018-09-10T11:37:08.131Z,66.5
2018-09-10T11:37:58.151Z,66.4
2018-09-10T11:38:47.930Z,66.7
2018-09-10T11:39:38.246Z,66.9
2018-09-10T11:40:27.744Z,66.2
2018-09-10T11:41:18.381Z,64.8
2018-09-10T11:42:07.863Z,63.3
2018-09-10T11:42:58.283Z,62.3
2018-09-10T11:43:48.290Z,62
2018-09-10T11:44:38.626Z,61.6
2018-09-10T11:45:28.179Z,61.1
2018-09-10T11:46:18.536Z,60.6
2018-09-10T11:47:08.835Z,59.9
2018-09-10T11:47:58.884Z,59.3
2018-09-10T11:48:49.005Z,58.7
2018-09-10T11:49:39.020Z,58.3
2018-09-10T11:50:28.783Z,58.1
2018-09-10T11:51:19.185Z,57.8
2018-09-10T11:52:09.212Z,57.4
2018-09-10T11:52:59.002Z,56.8
2018-09-10T11:53:49.330Z,56.2
2018-09-10T11:54:39.407Z,55.6
2018-09-10T11:55:29.925Z,55.1
2018-09-10T11:56:19.295Z,54.8
2018-09-10T11:57:09.590Z,54.8
2018-09-10T11:57:59.665Z,55.1
2018-09-10T11:58:49.714Z,55.6
2018-09-10T11:59:39.492Z,56.5
2018-09-10T12:00:29.547Z,57.2
2018-09-10T12:01:19.909Z,56.7
2018-09-10T12:02:10.708Z,55.8
2018-09-10T12:03:00.062Z,54.8
2018-09-10T12:03:50.201Z,53.9
2018-09-10T12:04:40.162Z,53.2
2018-09-10T12:05:29.954Z,52.7
2018-09-10T12:06:20.274Z,52.3
2018-09-10T12:07:10.360Z,52
2018-09-10T12:08:00.426Z,51.7
2018-09-10T12:08:50.252Z,51.2
2018-09-10T12:09:41.044Z,50.6
2018-09-10T12:10:30.620Z,50
2018-09-10T12:11:20.675Z,49.4
2018-09-10T12:12:10.729Z,48.7
2018-09-10T12:13:00.831Z,48.1
2018-09-10T12:13:51.190Z,47.6
2018-09-10T12:14:41.160Z,47
2018-09-10T12:15:30.705Z,46.5
2018-09-10T12:16:20.478Z,46
2018-09-10T12:17:10.271Z,45.6
2018-09-10T12:18:01.166Z,45.1
2018-09-10T12:18:51.250Z,44.6
2018-09-10T12:19:40.730Z,44.2
2018-09-10T12:20:31.373Z,43.8
2018-09-10T12:21:21.816Z,43.4
2018-09-10T12:22:11.491Z,43.1
2018-09-10T12:23:01.565Z,42.6
2018-09-10T12:23:50.842Z,44.3
2018-09-10T12:24:41.200Z,47.6
2018-09-10T12:25:31.177Z,59.3
2018-09-10T12:26:21.519Z,64.3
2018-09-10T12:27:11.887Z,64.4
2018-09-10T12:28:01.354Z,61.8